createdAt,value
2023-04-21T00:00:11.147Z,4.40
2023-04-21T00:02:41.983Z,4.43
2023-04-21T00:05:10.944Z,4.10
2023-04-21T00:07:39.496Z,3.53
2023-04-21T00:10:08.142Z,3.60
2023-04-21T00:12:35.856Z,3.60
2023-04-21T00:15:03.539Z,4.50
2023-04-21T00:17:31.675Z,3.70
2023-04-21T00:19:59.092Z,4.40
2023-04-21T00:22:26.437Z,4.47
2023-04-21T00:24:53.816Z,4.00
2023-04-21T00:27:21.237Z,3.90
2023-04-21T00:29:48.592Z,3.87
2023-04-21T00:32:16.285Z,4.33
2023-04-21T00:34:43.697Z,3.90
2023-04-21T00:37:12.711Z,4.07
2023-04-21T00:39:40.371Z,3.90
2023-04-21T00:42:07.707Z,3.90
2023-04-21T00:44:36.314Z,3.93
2023-04-21T00:47:04.781Z,3.53
2023-04-21T00:49:32.679Z,3.43
2023-04-21T00:52:00.516Z,4.00
2023-04-21T00:54:28.356Z,4.13
2023-04-21T00:56:58.431Z,3.63
2023-04-21T00:59:25.887Z,3.90
2023-04-21T01:01:53.453Z,3.40
2023-04-21T01:04:21.904Z,3.87
2023-04-21T01:06:49.313Z,3.87
2023-04-21T01:09:16.852Z,4.57
2023-04-21T01:12:02.383Z,4.00
2023-04-21T01:14:30.067Z,3.90
2023-04-21T01:16:57.787Z,4.00
2023-04-21T01:19:25.826Z,3.97
2023-04-21T01:22:00.773Z,4.40
2023-04-21T01:24:40.764Z,4.17
2023-04-21T01:27:12.477Z,4.70
2023-04-21T01:29:40.862Z,3.73
2023-04-21T01:32:10.422Z,4.27
2023-04-21T01:34:37.853Z,5.03
2023-04-21T01:37:07.766Z,4.13
2023-04-21T01:39:35.282Z,4.20
2023-04-21T01:42:02.639Z,4.60
2023-04-21T01:44:29.972Z,4.57
2023-04-21T01:46:58.877Z,4.53
2023-04-21T01:49:26.237Z,5.13
2023-04-21T01:51:53.588Z,5.30
2023-04-21T01:54:21.041Z,4.27
2023-04-21T01:56:48.514Z,4.23
2023-04-21T01:59:16.262Z,4.93
2023-04-21T02:01:43.707Z,4.40
2023-04-21T02:04:11.586Z,4.17
2023-04-21T02:06:38.962Z,4.53
2023-04-21T02:09:07.456Z,5.10
2023-04-21T02:11:35.001Z,4.33
2023-04-21T02:14:02.379Z,4.00
2023-04-21T02:16:29.860Z,4.63
2023-04-21T02:18:57.912Z,5.33
2023-04-21T02:21:25.594Z,5.17
2023-04-21T02:23:52.983Z,5.40
2023-04-21T02:26:21.058Z,5.63
2023-04-21T02:28:49.656Z,4.73
2023-04-21T02:31:17.393Z,5.80
2023-04-21T02:33:45.134Z,5.07
2023-04-21T02:36:12.649Z,5.23
2023-04-21T02:38:40.683Z,5.70
2023-04-21T02:41:10.585Z,4.60
2023-04-21T02:43:38.025Z,4.77
2023-04-21T02:46:08.778Z,5.03
2023-04-21T02:48:36.680Z,4.57
2023-04-21T02:51:04.656Z,6.30
2023-04-21T02:53:32.783Z,4.70
2023-04-21T02:56:02.432Z,3.93
2023-04-21T02:58:31.392Z,3.70
2023-04-21T03:00:58.790Z,3.90
2023-04-21T03:03:26.320Z,4.60
2023-04-21T03:05:57.746Z,5.37
2023-04-21T03:08:25.238Z,5.13
2023-04-21T03:10:52.646Z,5.43
2023-04-21T03:13:24.453Z,4.37
2023-04-21T03:15:51.884Z,5.00
2023-04-21T03:18:19.302Z,4.33
2023-04-21T03:20:46.731Z,4.40
2023-04-21T03:23:14.159Z,4.37
2023-04-21T03:25:41.595Z,4.73
2023-04-21T03:28:09.227Z,5.40
2023-04-21T03:30:36.704Z,5.17
2023-04-21T03:33:04.900Z,4.83
2023-04-21T03:35:34.356Z,4.30
2023-04-21T03:38:03.875Z,4.63
2023-04-21T03:40:31.579Z,4.53
2023-04-21T03:42:58.934Z,4.97
2023-04-21T03:45:26.303Z,4.73
2023-04-21T03:50:22.168Z,5.57
2023-04-21T03:52:49.573Z,5.63
2023-04-21T03:55:16.985Z,4.87
2023-04-21T03:57:44.338Z,5.27
2023-04-21T04:00:12.651Z,5.20
2023-04-21T04:02:41.181Z,4.40
2023-04-21T04:05:08.881Z,5.83
2023-04-21T04:07:36.677Z,6.37
2023-04-21T04:10:04.518Z,5.10
2023-04-21T04:12:31.905Z,5.33
2023-04-21T04:14:59.305Z,5.57
2023-04-21T04:17:27.064Z,5.20
2023-04-21T04:19:54.682Z,4.53
2023-04-21T04:22:22.063Z,5.03
2023-04-21T04:24:49.492Z,5.43
2023-04-21T04:27:17.979Z,4.13
2023-04-21T04:29:46.515Z,5.43
2023-04-21T04:32:15.425Z,5.07
2023-04-21T04:34:43.091Z,5.03
2023-04-21T04:37:11.368Z,5.23
2023-04-21T04:39:39.057Z,4.40
2023-04-21T04:42:10.155Z,5.23
2023-04-21T04:44:37.557Z,4.73
2023-04-21T04:47:05.326Z,4.90
2023-04-21T04:49:32.746Z,4.37
2023-04-21T04:52:00.163Z,5.00
2023-04-21T04:54:29.006Z,5.53
2023-04-21T04:56:58.005Z,4.83
2023-04-21T04:59:25.565Z,5.43
2023-04-21T05:01:53.027Z,4.57
2023-04-21T05:04:20.899Z,4.83
2023-04-21T05:06:48.690Z,4.80
2023-04-21T05:09:16.500Z,4.70
2023-04-21T05:11:43.864Z,4.93
2023-04-21T05:14:11.202Z,4.30
2023-04-21T05:16:38.645Z,4.50
2023-04-21T05:19:06.054Z,4.60
2023-04-21T05:21:33.619Z,4.93
2023-04-21T05:24:01.116Z,4.93
2023-04-21T05:26:29.459Z,4.03
2023-04-21T05:28:57.734Z,4.07
2023-04-21T05:31:25.789Z,4.43
2023-04-21T05:33:53.308Z,5.03
2023-04-21T05:36:20.859Z,5.00
2023-04-21T05:38:48.205Z,4.80
2023-04-21T05:41:16.078Z,4.57
2023-04-21T05:43:43.666Z,5.03
2023-04-21T05:46:11.275Z,4.63
2023-04-21T05:48:38.891Z,4.90
2023-04-21T05:51:13.779Z,4.33
2023-04-21T05:53:41.300Z,4.77
2023-04-21T05:56:12.212Z,5.20
2023-04-21T05:58:39.665Z,5.33
2023-04-21T06:01:06.951Z,4.77
2023-04-21T06:03:34.649Z,4.60
2023-04-21T06:06:03.411Z,5.40
2023-04-21T06:08:30.800Z,4.73
2023-04-21T06:10:58.173Z,4.70
2023-04-21T06:13:27.444Z,5.77
2023-04-21T06:15:55.391Z,5.50
2023-04-21T06:18:24.030Z,5.30
2023-04-21T06:20:52.240Z,5.80
2023-04-21T06:23:19.627Z,4.83
2023-04-21T06:25:46.961Z,5.50
2023-04-21T06:28:14.427Z,5.80
2023-04-21T06:30:41.848Z,6.33
2023-04-21T06:33:09.401Z,5.40
2023-04-21T06:35:36.795Z,5.40
2023-04-21T06:38:04.123Z,5.57
2023-04-21T06:40:31.451Z,5.70
2023-04-21T06:42:58.802Z,5.43
2023-04-21T06:45:26.255Z,5.90
2023-04-21T06:47:53.556Z,5.57
2023-04-21T06:50:20.967Z,5.40
2023-04-21T06:52:48.321Z,6.13
2023-04-21T06:55:16.145Z,5.40
2023-04-21T06:57:43.542Z,6.07
2023-04-21T07:00:11.677Z,5.50
2023-04-21T07:02:39.199Z,7.60
2023-04-21T07:05:06.808Z,6.93
2023-04-21T07:07:34.388Z,7.13
2023-04-21T07:10:01.674Z,6.03
2023-04-21T07:12:29.025Z,6.20
2023-04-21T07:14:56.522Z,6.50
2023-04-21T07:17:23.817Z,6.10
2023-04-21T07:19:51.372Z,6.63
2023-04-21T07:22:18.704Z,6.57
2023-04-21T07:24:46.287Z,6.77
2023-04-21T07:27:13.767Z,6.30
2023-04-21T07:29:41.342Z,6.40
2023-04-21T07:32:08.694Z,7.33
2023-04-21T07:34:36.180Z,7.13
2023-04-21T07:37:03.748Z,6.27
2023-04-21T07:39:31.090Z,8.03
2023-04-21T07:41:58.415Z,8.00
2023-04-21T07:44:25.844Z,6.83
2023-04-21T07:46:53.202Z,7.13
2023-04-21T07:49:20.974Z,7.33
2023-04-21T07:51:48.519Z,7.07
2023-04-21T07:54:15.940Z,6.93
2023-04-21T07:56:43.333Z,7.40
2023-04-21T07:59:10.762Z,7.17
2023-04-21T08:01:38.079Z,7.13
2023-04-21T08:04:05.870Z,7.97
2023-04-21T08:06:33.563Z,8.27
2023-04-21T08:09:01.016Z,7.83
2023-04-21T08:11:28.668Z,7.30
2023-04-21T08:13:56.297Z,6.77
2023-04-21T08:16:23.827Z,7.30
2023-04-21T08:18:51.145Z,7.70
2023-04-21T08:21:18.544Z,7.90
2023-04-21T08:23:46.047Z,9.20
2023-04-21T08:26:13.532Z,7.43
2023-04-21T08:28:41.094Z,7.73
2023-04-21T08:31:09.025Z,7.77
2023-04-21T08:33:41.380Z,7.93
2023-04-21T08:36:26.166Z,8.40
2023-04-21T08:38:56.805Z,8.53
2023-04-21T08:41:25.224Z,8.43
2023-04-21T08:43:52.685Z,7.80
2023-04-21T08:46:20.158Z,9.30
2023-04-21T08:48:48.000Z,9.17
2023-04-21T08:51:17.259Z,9.40
2023-04-21T08:53:44.717Z,8.50
2023-04-21T08:56:12.102Z,8.50
2023-04-21T08:58:39.620Z,9.40
2023-04-21T09:01:06.960Z,8.47
2023-04-21T09:03:34.594Z,7.90
2023-04-21T09:06:06.864Z,7.97
2023-04-21T09:08:35.601Z,7.93
2023-04-21T09:11:03.379Z,7.23
2023-04-21T09:13:32.309Z,8.37
2023-04-21T09:16:00.483Z,8.03
2023-04-21T09:18:31.118Z,8.23
2023-04-21T09:21:07.798Z,9.20
2023-04-21T09:23:44.645Z,8.70
2023-04-21T09:26:12.464Z,8.63
2023-04-21T09:28:43.889Z,8.60
2023-04-21T09:31:16.401Z,7.63
2023-04-21T09:33:57.783Z,8.40
2023-04-21T09:36:28.237Z,8.00
2023-04-21T09:39:15.341Z,9.00
2023-04-21T09:41:44.507Z,8.13
2023-04-21T09:44:11.809Z,7.90
2023-04-21T09:46:39.407Z,7.90
2023-04-21T09:49:06.961Z,7.67
2023-04-21T09:54:28.479Z,8.33
2023-04-21T09:56:58.849Z,7.17
2023-04-21T09:59:28.203Z,7.37
2023-04-21T10:01:56.690Z,8.13
2023-04-21T10:04:26.450Z,8.33
2023-04-21T10:06:54.201Z,7.80
2023-04-21T10:09:23.466Z,7.43
2023-04-21T10:11:53.100Z,7.07
2023-04-21T10:14:20.805Z,6.67
2023-04-21T10:16:56.971Z,7.60
2023-04-21T10:19:28.183Z,7.40
2023-04-21T10:21:58.995Z,8.17
2023-04-21T10:24:29.997Z,8.07
2023-04-21T10:27:01.677Z,8.60
2023-04-21T10:29:40.050Z,7.93
2023-04-21T10:32:12.654Z,8.13
2023-04-21T10:34:40.638Z,9.10
2023-04-21T10:37:07.901Z,7.43
2023-04-21T10:39:36.617Z,7.13
2023-04-21T10:42:13.301Z,8.37
2023-04-21T10:44:44.255Z,7.73
2023-04-21T10:47:11.863Z,8.87
2023-04-21T10:49:40.451Z,8.17
2023-04-21T10:52:08.718Z,7.27
2023-04-21T10:54:36.701Z,7.70
2023-04-21T10:57:06.941Z,8.23
2023-04-21T10:59:35.086Z,7.87
2023-04-21T11:02:07.494Z,8.40
2023-04-21T11:04:35.416Z,7.00
2023-04-21T11:07:13.473Z,8.17
2023-04-21T11:09:42.235Z,8.63
2023-04-21T11:12:09.482Z,8.57
2023-04-21T11:14:37.880Z,7.60
2023-04-21T11:17:05.885Z,8.27
2023-04-21T11:19:33.244Z,8.83
2023-04-21T11:22:00.939Z,7.17
2023-04-21T11:24:28.413Z,8.87
2023-04-21T11:26:56.733Z,8.43
2023-04-21T11:29:24.262Z,8.37
2023-04-21T11:31:53.774Z,8.00
2023-04-21T11:34:21.599Z,7.00
2023-04-21T11:36:49.650Z,7.97
2023-04-21T11:39:21.825Z,7.17
2023-04-21T11:41:50.297Z,7.77
2023-04-21T11:44:33.063Z,7.17
2023-04-21T11:47:00.537Z,7.67
2023-04-21T11:49:29.486Z,8.90
2023-04-21T11:51:57.179Z,8.47
2023-04-21T11:54:24.806Z,7.53
2023-04-21T11:56:53.060Z,8.20
2023-04-21T11:59:25.752Z,8.90
2023-04-21T12:01:54.716Z,8.53
2023-04-21T12:04:23.314Z,8.40
2023-04-21T12:07:03.728Z,8.07
2023-04-21T12:09:31.114Z,8.50
2023-04-21T12:11:59.587Z,8.10
2023-04-21T12:14:27.254Z,8.10
2023-04-21T12:16:57.706Z,7.43
2023-04-21T12:19:26.496Z,7.77
2023-04-21T12:21:57.119Z,7.83
2023-04-21T12:24:24.560Z,7.37
2023-04-21T12:26:52.208Z,8.13
2023-04-21T12:29:19.542Z,7.23
2023-04-21T12:31:46.942Z,6.77
2023-04-21T12:34:14.297Z,7.73
2023-04-21T12:36:42.841Z,6.87
2023-04-21T12:39:10.847Z,8.53
2023-04-21T12:41:38.340Z,7.27
2023-04-21T12:44:05.812Z,7.20
2023-04-21T12:46:33.422Z,7.87
2023-04-21T12:49:01.066Z,7.00
2023-04-21T12:51:28.407Z,8.50
2023-04-21T12:53:55.766Z,8.03
2023-04-21T12:56:23.126Z,7.27
2023-04-21T12:58:50.429Z,7.50
2023-04-21T13:01:17.776Z,7.07
2023-04-21T13:03:45.442Z,6.73
2023-04-21T13:06:13.188Z,8.17
2023-04-21T13:08:40.524Z,7.93
2023-04-21T13:11:07.914Z,8.40
2023-04-21T13:13:35.273Z,7.37
2023-04-21T13:16:02.556Z,8.17
2023-04-21T13:18:31.092Z,7.20
2023-04-21T13:20:58.398Z,6.53
2023-04-21T13:23:25.980Z,6.90
2023-04-21T13:25:53.399Z,7.73
2023-04-21T13:28:20.916Z,7.47
2023-04-21T13:30:48.449Z,7.30
2023-04-21T13:33:16.534Z,6.87
2023-04-21T13:35:43.906Z,7.87
2023-04-21T13:38:11.669Z,8.10
2023-04-21T13:40:39.148Z,8.17
2023-04-21T13:43:06.486Z,6.77
2023-04-21T13:45:33.974Z,6.77
2023-04-21T13:48:01.390Z,6.90
2023-04-21T13:50:28.776Z,7.50
2023-04-21T13:52:56.052Z,6.87
2023-04-21T13:55:23.592Z,7.07
2023-04-21T13:57:51.273Z,7.20
2023-04-21T14:00:18.896Z,6.40
2023-04-21T14:02:46.562Z,7.13
2023-04-21T14:05:14.388Z,6.97
2023-04-21T14:07:43.277Z,6.83
2023-04-21T14:10:12.034Z,7.00
2023-04-21T14:12:39.483Z,6.40
2023-04-21T14:15:07.284Z,7.93
2023-04-21T14:17:35.000Z,6.03
2023-04-21T14:20:02.540Z,7.33
2023-04-21T14:22:30.035Z,6.13
2023-04-21T14:24:57.351Z,6.83
2023-04-21T14:27:24.904Z,6.57
2023-04-21T14:29:52.416Z,7.47
2023-04-21T14:32:20.938Z,7.30
2023-04-21T14:34:48.973Z,7.77
2023-04-21T14:37:16.340Z,7.10
2023-04-21T14:39:43.752Z,6.90
2023-04-21T14:42:11.076Z,6.43
2023-04-21T14:44:38.462Z,6.57
2023-04-21T14:47:10.285Z,6.37
2023-04-21T14:49:39.032Z,7.30
2023-04-21T14:52:07.120Z,6.90
2023-04-21T14:54:34.797Z,7.77
2023-04-21T14:57:14.795Z,7.33
2023-04-21T14:59:47.142Z,6.93
2023-04-21T15:02:14.868Z,7.97
2023-04-21T15:04:42.578Z,6.33
2023-04-21T15:07:10.394Z,7.00
2023-04-21T15:09:39.226Z,7.90
2023-04-21T15:12:07.591Z,7.97
2023-04-21T15:14:35.079Z,7.63
2023-04-21T15:17:03.183Z,6.83
2023-04-21T15:19:31.197Z,6.30
2023-04-21T15:21:59.222Z,7.53
2023-04-21T15:24:27.458Z,6.80
2023-04-21T15:26:55.110Z,7.60
2023-04-21T15:29:22.553Z,9.77
2023-04-21T15:31:49.950Z,7.63
2023-04-21T15:34:17.480Z,7.60
2023-04-21T15:36:44.773Z,7.20
2023-04-21T15:39:14.260Z,7.90
2023-04-21T15:41:41.842Z,6.67
2023-04-21T15:44:09.286Z,6.87
2023-04-21T15:46:36.646Z,7.07
2023-04-21T15:49:04.275Z,8.77
2023-04-21T15:51:35.923Z,8.17
2023-04-21T15:54:03.306Z,7.17
2023-04-21T15:56:30.721Z,7.33
2023-04-21T15:58:58.073Z,6.50
2023-04-21T16:01:25.693Z,7.03
2023-04-21T16:03:53.479Z,8.57
2023-04-21T16:06:21.559Z,8.03
2023-04-21T16:08:48.983Z,7.60
2023-04-21T16:11:16.548Z,6.93
2023-04-21T16:13:44.081Z,6.93
2023-04-21T16:16:11.600Z,7.17
2023-04-21T16:18:39.201Z,6.10
2023-04-21T16:21:06.911Z,6.53
2023-04-21T16:23:34.380Z,6.87
2023-04-21T16:26:02.254Z,7.07
2023-04-21T16:28:29.727Z,6.57
2023-04-21T16:30:57.099Z,7.27
2023-04-21T16:33:24.673Z,6.87
2023-04-21T16:35:56.102Z,6.77
2023-04-21T16:38:24.872Z,5.63
2023-04-21T16:40:52.270Z,6.87
2023-04-21T16:43:19.668Z,7.90
2023-04-21T16:45:47.061Z,7.23
2023-04-21T16:48:14.706Z,6.10
2023-04-21T16:50:42.195Z,6.03
2023-04-21T16:53:09.610Z,6.27
2023-04-21T16:55:37.023Z,5.67
2023-04-21T16:58:04.427Z,6.47
2023-04-21T17:00:32.053Z,6.20
2023-04-21T17:02:59.707Z,6.03
2023-04-21T17:05:27.389Z,5.80
2023-04-21T17:07:54.944Z,7.10
2023-04-21T17:10:22.493Z,6.90
2023-04-21T17:12:49.908Z,6.60
2023-04-21T17:15:17.339Z,6.40
2023-04-21T17:17:46.980Z,6.50
2023-04-21T17:20:14.908Z,6.37
2023-04-21T17:22:42.774Z,7.30
2023-04-21T17:25:10.910Z,6.30
2023-04-21T17:27:38.991Z,5.83
2023-04-21T17:30:07.292Z,6.20
2023-04-21T17:32:34.751Z,6.63
2023-04-21T17:35:02.417Z,6.20
2023-04-21T17:37:30.329Z,7.03
2023-04-21T17:40:00.321Z,7.87
2023-04-21T17:42:30.985Z,6.63
2023-04-21T17:44:58.409Z,6.57
2023-04-21T17:47:25.860Z,6.30
2023-04-21T17:49:53.402Z,6.30
2023-04-21T17:52:21.304Z,6.30
2023-04-21T17:54:48.670Z,6.70
2023-04-21T17:57:16.130Z,6.87
2023-04-21T17:59:43.485Z,6.83
2023-04-21T18:02:11.436Z,6.60
2023-04-21T18:04:39.479Z,6.80
2023-04-21T18:07:07.541Z,7.50
2023-04-21T18:09:34.875Z,7.30
2023-04-21T18:12:02.736Z,7.83
2023-04-21T18:14:30.542Z,6.93
2023-04-21T18:16:57.856Z,7.73
2023-04-21T18:19:25.230Z,7.47
2023-04-21T18:21:52.625Z,7.00
2023-04-21T18:24:20.058Z,7.87
2023-04-21T18:26:47.450Z,6.43
2023-04-21T18:29:17.741Z,6.77
2023-04-21T18:31:45.490Z,7.17
2023-04-21T18:34:14.358Z,8.80
2023-04-21T18:36:43.025Z,6.53
2023-04-21T18:39:11.091Z,7.13
2023-04-21T18:41:39.075Z,7.10
2023-04-21T18:44:06.916Z,7.97
2023-04-21T18:46:34.551Z,6.63
2023-04-21T18:49:02.066Z,6.73
2023-04-21T18:51:31.359Z,7.10
2023-04-21T18:53:58.731Z,6.53
2023-04-21T18:56:26.584Z,6.90
2023-04-21T18:58:54.090Z,6.90
2023-04-21T19:01:21.814Z,7.20
2023-04-21T19:03:49.517Z,7.17
2023-04-21T19:06:17.104Z,9.03
2023-04-21T19:08:44.698Z,7.77
2023-04-21T19:11:12.752Z,7.43
2023-04-21T19:13:40.233Z,7.87
2023-04-21T19:16:08.775Z,7.50
2023-04-21T19:18:36.233Z,7.67
2023-04-21T19:21:04.612Z,7.60
2023-04-21T19:23:32.099Z,6.90
2023-04-21T19:25:59.995Z,6.77
2023-04-21T19:28:27.555Z,5.97
2023-04-21T19:30:54.896Z,4.50
2023-04-21T19:33:22.248Z,4.23
2023-04-21T19:35:49.871Z,4.40
2023-04-21T19:38:17.209Z,3.50
2023-04-21T19:40:45.002Z,3.47
2023-04-21T19:43:12.897Z,3.73
2023-04-21T19:45:40.617Z,4.50
2023-04-21T19:48:08.136Z,5.17
2023-04-21T19:50:36.494Z,4.10
2023-04-21T19:53:04.713Z,4.67
2023-04-21T19:55:32.654Z,4.37
2023-04-21T19:57:59.998Z,4.40
2023-04-21T20:00:27.493Z,4.70
2023-04-21T20:02:55.004Z,4.10
2023-04-21T20:05:22.489Z,4.40
2023-04-21T20:07:50.082Z,3.80
2023-04-21T20:10:17.678Z,4.27
2023-04-21T20:12:45.329Z,4.07
2023-04-21T20:15:13.294Z,3.80
2023-04-21T20:17:41.960Z,3.57
2023-04-21T20:20:09.640Z,3.97
2023-04-21T20:22:37.191Z,3.10
2023-04-21T20:25:04.823Z,3.30
2023-04-21T20:27:32.518Z,3.07
2023-04-21T20:30:00.260Z,2.70
2023-04-21T20:32:27.749Z,2.27
2023-04-21T20:34:55.042Z,2.53
2023-04-21T20:37:23.196Z,2.30
2023-04-21T20:39:50.866Z,1.90
2023-04-21T20:42:19.306Z,2.40
2023-04-21T20:44:47.364Z,2.27
2023-04-21T20:47:14.840Z,2.33
2023-04-21T20:49:43.674Z,2.27
2023-04-21T20:52:11.499Z,2.37
2023-04-21T20:54:39.454Z,2.33
2023-04-21T20:57:07.743Z,2.30
2023-04-21T20:59:35.317Z,2.20
2023-04-21T21:02:02.955Z,2.10
2023-04-21T21:04:30.609Z,2.23
2023-04-21T21:06:58.252Z,1.73
2023-04-21T21:09:25.883Z,2.20
2023-04-21T21:11:53.244Z,2.10
2023-04-21T21:14:20.648Z,2.30
2023-04-21T21:16:48.172Z,2.00
2023-04-21T21:19:15.824Z,1.70
2023-04-21T21:21:43.407Z,1.70
2023-04-21T21:24:11.612Z,1.53
2023-04-21T21:26:42.540Z,1.53
2023-04-21T21:29:10.361Z,1.60
2023-04-21T21:31:37.866Z,1.87
2023-04-21T21:34:05.672Z,1.80
2023-04-21T21:36:33.441Z,2.00
2023-04-21T21:39:00.880Z,1.57
2023-04-21T21:41:28.423Z,1.50
2023-04-21T21:43:56.017Z,1.73
2023-04-21T21:46:23.705Z,2.13
2023-04-21T21:48:51.153Z,1.73
2023-04-21T21:51:19.785Z,1.53
2023-04-21T21:53:47.298Z,1.70
2023-04-21T21:56:14.709Z,1.50
2023-04-21T21:58:42.157Z,2.17
2023-04-21T22:01:15.169Z,1.70
2023-04-21T22:03:42.909Z,1.80
2023-04-21T22:06:10.919Z,2.17
2023-04-21T22:08:38.317Z,2.00
2023-04-21T22:11:06.006Z,2.20
2023-04-21T22:13:33.576Z,2.30
2023-04-21T22:16:02.453Z,1.97
2023-04-21T22:18:30.160Z,1.93
2023-04-21T22:20:59.036Z,2.20
2023-04-21T22:23:26.941Z,1.93
2023-04-21T22:25:54.436Z,1.93
2023-04-21T22:28:22.001Z,2.93
2023-04-21T22:30:49.330Z,2.67
2023-04-21T22:33:16.774Z,2.60
2023-04-21T22:35:44.121Z,2.20
2023-04-21T22:38:11.517Z,1.90
2023-04-21T22:40:38.913Z,3.17
2023-04-21T22:43:06.625Z,2.80
2023-04-21T22:45:34.087Z,2.40
2023-04-21T22:48:01.448Z,2.43
2023-04-21T22:50:29.625Z,2.37
2023-04-21T22:52:57.743Z,2.93
2023-04-21T22:55:25.708Z,2.80
2023-04-21T22:57:53.219Z,4.23
2023-04-21T23:00:20.859Z,2.67
2023-04-21T23:02:48.376Z,2.97
2023-04-21T23:05:16.001Z,4.13
2023-04-21T23:07:43.600Z,3.40
2023-04-21T23:10:11.829Z,3.23
2023-04-21T23:12:39.317Z,3.13
2023-04-21T23:15:06.951Z,3.57
2023-04-21T23:17:34.752Z,4.17
2023-04-21T23:20:05.094Z,3.60
2023-04-21T23:22:32.842Z,5.33
2023-04-21T23:25:00.269Z,4.03
2023-04-21T23:27:27.798Z,3.50
2023-04-21T23:29:55.160Z,3.80
2023-04-21T23:32:22.469Z,3.60
2023-04-21T23:34:49.852Z,4.00
2023-04-21T23:37:17.390Z,3.80
2023-04-21T23:39:44.692Z,3.50
2023-04-21T23:42:12.021Z,3.77
2023-04-21T23:44:40.425Z,4.00
2023-04-21T23:47:07.921Z,3.53
2023-04-21T23:49:35.550Z,4.07
2023-04-21T23:52:03.032Z,4.00
2023-04-21T23:54:30.473Z,3.57
2023-04-21T23:56:58.346Z,4.20
2023-04-21T23:59:25.770Z,3.90
